createdAt,value
2022-10-05T00:00:05.180Z,24.2
2022-10-05T00:01:04.758Z,24.2
2022-10-05T00:02:06.229Z,24.2
2022-10-05T00:03:04.411Z,24.2
2022-10-05T00:04:09.432Z,24.2
2022-10-05T00:05:04.563Z,24.2
2022-10-05T00:06:04.357Z,24.2
2022-10-05T00:08:57.307Z,23.9
2022-10-05T00:09:06.078Z,23.9
2022-10-05T00:10:05.047Z,24.1
2022-10-05T00:11:05.040Z,24.1
2022-10-05T00:12:04.987Z,24.1
2022-10-05T00:13:05.009Z,24.1
2022-10-05T00:14:04.720Z,24.1
2022-10-05T00:15:06.192Z,24.1
2022-10-05T00:16:05.026Z,24.1
2022-10-05T00:17:05.082Z,24.1
2022-10-05T00:18:04.712Z,24.0
2022-10-05T00:19:04.961Z,24.0
2022-10-05T00:20:04.710Z,24.0
2022-10-05T00:21:05.959Z,24.0
2022-10-05T00:22:04.748Z,24.0
2022-10-05T00:23:05.048Z,24.0
2022-10-05T00:24:04.955Z,24.0
2022-10-05T00:25:04.706Z,24.0
2022-10-05T00:26:06.064Z,24.0
2022-10-05T00:27:04.657Z,23.9
2022-10-05T00:28:06.608Z,23.9
2022-10-05T00:29:04.751Z,23.9
2022-10-05T00:30:04.782Z,23.9
2022-10-05T00:31:08.799Z,23.9
2022-10-05T00:32:06.200Z,23.9
2022-10-05T00:33:05.834Z,23.9
2022-10-05T00:34:04.785Z,23.9
2022-10-05T00:35:06.177Z,23.9
2022-10-05T00:36:05.016Z,23.8
2022-10-05T00:37:04.664Z,23.8
2022-10-05T00:38:04.880Z,23.8
2022-10-05T00:39:06.523Z,23.8
2022-10-05T00:40:04.943Z,23.8
2022-10-05T00:41:04.702Z,23.8
2022-10-05T00:42:04.749Z,23.8
2022-10-05T00:43:04.691Z,23.8
2022-10-05T00:44:05.059Z,23.8
2022-10-05T00:45:04.719Z,23.8
2022-10-05T00:46:05.005Z,23.7
2022-10-05T00:47:04.983Z,23.7
2022-10-05T00:48:04.683Z,23.7
2022-10-05T00:49:04.722Z,23.7
2022-10-05T00:50:05.126Z,23.7
2022-10-05T00:51:05.273Z,23.7
2022-10-05T00:52:04.976Z,23.7
2022-10-05T00:53:04.975Z,23.7
2022-10-05T00:55:43.824Z,23.7
2022-10-05T00:55:48.230Z,23.4
2022-10-05T00:56:04.740Z,23.5
2022-10-05T00:57:04.686Z,23.6
2022-10-05T00:58:04.714Z,23.6
2022-10-05T00:59:04.730Z,23.6
2022-10-05T01:00:04.737Z,23.6
2022-10-05T01:01:04.852Z,23.6
2022-10-05T01:02:05.064Z,23.6
2022-10-05T01:03:05.039Z,23.5
2022-10-05T01:04:04.694Z,23.5
2022-10-05T01:05:04.738Z,23.5
2022-10-05T01:06:04.723Z,23.5
2022-10-05T01:07:06.224Z,23.5
2022-10-05T01:08:04.719Z,23.5
2022-10-05T01:09:04.785Z,23.5
2022-10-05T01:10:05.029Z,23.5
2022-10-05T01:11:04.731Z,23.5
2022-10-05T01:12:04.924Z,23.5
2022-10-05T01:13:05.012Z,23.5
2022-10-05T01:14:04.705Z,23.5
2022-10-05T01:15:04.698Z,23.5
2022-10-05T01:16:04.755Z,23.5
2022-10-05T01:17:06.138Z,23.4
2022-10-05T01:18:04.685Z,23.4
2022-10-05T01:19:04.785Z,23.4
2022-10-05T01:20:05.003Z,23.4
2022-10-05T01:21:04.690Z,23.4
2022-10-05T01:22:06.252Z,23.4
2022-10-05T01:23:04.748Z,23.4
2022-10-05T01:24:07.540Z,23.4
2022-10-05T01:25:04.756Z,23.4
2022-10-05T01:26:04.716Z,23.4
2022-10-05T01:27:06.044Z,23.4
2022-10-05T01:28:04.750Z,23.3
2022-10-05T01:29:04.981Z,23.3
2022-10-05T01:30:04.756Z,23.3
2022-10-05T01:31:04.908Z,23.3
2022-10-05T01:32:05.137Z,23.3
2022-10-05T01:33:04.704Z,23.3
2022-10-05T01:34:11.169Z,23.3
2022-10-05T01:35:05.081Z,23.3
2022-10-05T01:36:06.796Z,23.3
2022-10-05T01:37:05.294Z,23.3
2022-10-05T01:38:05.064Z,23.3
2022-10-05T01:39:06.656Z,23.2
2022-10-05T01:40:04.805Z,23.2
2022-10-05T01:41:05.031Z,23.2
2022-10-05T01:42:05.032Z,23.2
2022-10-05T01:43:05.048Z,23.2
2022-10-05T01:44:04.695Z,23.2
2022-10-05T01:45:04.967Z,23.2
2022-10-05T01:46:04.801Z,23.2
2022-10-05T01:47:04.723Z,23.2
2022-10-05T01:48:06.369Z,23.2
2022-10-05T01:49:04.704Z,23.2
2022-10-05T01:50:04.988Z,23.2
2022-10-05T01:51:04.761Z,23.2
2022-10-05T01:52:05.285Z,23.1
2022-10-05T01:53:04.700Z,23.1
2022-10-05T01:55:55.644Z,22.8
2022-10-05T01:56:04.511Z,22.9
2022-10-05T01:57:04.030Z,23.0
2022-10-05T01:58:04.944Z,23.0
2022-10-05T01:59:04.820Z,23.0
2022-10-05T02:00:09.199Z,23.0
2022-10-05T02:01:04.115Z,23.0
2022-10-05T02:02:04.001Z,23.0
2022-10-05T02:03:04.035Z,23.0
2022-10-05T02:04:04.035Z,23.0
2022-10-05T02:05:04.103Z,23.0
2022-10-05T02:06:04.991Z,23.0
2022-10-05T02:07:04.402Z,23.0
2022-10-05T02:08:04.633Z,23.0
2022-10-05T02:09:04.027Z,23.0
2022-10-05T02:10:04.315Z,23.0
2022-10-05T02:11:03.989Z,23.0
2022-10-05T02:12:04.006Z,23.0
2022-10-05T02:13:04.128Z,23.0
2022-10-05T02:14:04.045Z,23.0
2022-10-05T02:15:03.946Z,23.0
2022-10-05T02:16:04.114Z,23.0
2022-10-05T02:17:04.280Z,22.9
2022-10-05T02:18:04.048Z,22.9
2022-10-05T02:19:04.804Z,22.9
2022-10-05T02:20:04.009Z,22.9
2022-10-05T02:21:03.975Z,22.9
2022-10-05T02:22:04.066Z,22.9
2022-10-05T02:23:04.230Z,22.9
2022-10-05T02:24:04.063Z,22.9
2022-10-05T02:25:04.368Z,22.9
2022-10-05T02:26:10.967Z,22.9
2022-10-05T02:27:05.017Z,22.9
2022-10-05T02:28:04.041Z,22.9
2022-10-05T02:29:04.315Z,22.9
2022-10-05T02:30:04.030Z,22.9
2022-10-05T02:31:04.130Z,22.8
2022-10-05T02:32:04.029Z,22.8
2022-10-05T02:33:04.283Z,22.8
2022-10-05T02:34:04.052Z,22.8
2022-10-05T02:35:04.004Z,22.8
2022-10-05T02:36:04.036Z,22.8
2022-10-05T02:37:05.259Z,22.8
2022-10-05T02:38:04.047Z,22.8
2022-10-05T02:39:04.241Z,22.8
2022-10-05T02:40:03.997Z,22.8
2022-10-05T02:41:06.069Z,22.8
2022-10-05T02:42:04.529Z,22.8
2022-10-05T02:43:04.054Z,22.8
2022-10-05T02:44:04.055Z,22.8
2022-10-05T02:45:04.036Z,22.8
2022-10-05T02:46:04.092Z,22.8
2022-10-05T02:47:11.327Z,22.7
2022-10-05T02:48:04.527Z,22.7
2022-10-05T02:49:05.964Z,22.7
2022-10-05T02:50:04.634Z,22.7
2022-10-05T02:51:04.542Z,22.7
2022-10-05T02:52:04.646Z,22.7
2022-10-05T02:53:04.831Z,22.7
2022-10-05T02:54:04.565Z,22.7
2022-10-05T02:55:04.878Z,22.7
2022-10-05T02:56:04.588Z,22.7
2022-10-05T02:57:05.557Z,22.7
2022-10-05T02:58:04.836Z,22.7
2022-10-05T02:59:04.612Z,22.7
2022-10-05T03:00:06.041Z,22.7
2022-10-05T03:01:04.913Z,22.7
2022-10-05T03:02:12.121Z,22.6
2022-10-05T03:03:04.072Z,22.6
2022-10-05T03:04:04.126Z,22.6
2022-10-05T03:05:04.124Z,22.6
2022-10-05T03:06:04.124Z,22.6
2022-10-05T03:07:04.137Z,22.6
2022-10-05T03:08:04.417Z,22.6
2022-10-05T03:09:04.083Z,22.6
2022-10-05T03:10:05.280Z,22.6
2022-10-05T03:11:04.184Z,22.6
2022-10-05T03:12:04.384Z,22.6
2022-10-05T03:13:05.030Z,22.6
2022-10-05T03:14:04.225Z,22.6
2022-10-05T03:15:06.064Z,22.6
2022-10-05T03:16:06.223Z,22.6
2022-10-05T03:17:04.871Z,22.6
2022-10-05T03:18:05.045Z,22.6
2022-10-05T03:19:04.977Z,22.6
2022-10-05T03:20:06.096Z,22.6
2022-10-05T03:21:04.256Z,22.5
2022-10-05T03:22:04.510Z,22.5
2022-10-05T03:23:04.111Z,22.5
2022-10-05T03:24:04.429Z,22.5
2022-10-05T03:25:04.119Z,22.5
2022-10-05T03:26:05.022Z,22.5
2022-10-05T03:27:08.334Z,22.5
2022-10-05T03:28:06.127Z,22.5
2022-10-05T03:29:04.286Z,22.5
2022-10-05T03:30:05.738Z,22.5
2022-10-05T03:31:04.567Z,22.5
2022-10-05T03:32:05.217Z,22.5
2022-10-05T03:33:08.537Z,22.5
2022-10-05T03:34:04.205Z,22.5
2022-10-05T03:35:06.077Z,22.5
2022-10-05T03:36:04.215Z,22.5
2022-10-05T03:37:04.892Z,22.4
2022-10-05T03:38:04.482Z,22.4
2022-10-05T03:39:04.094Z,22.4
2022-10-05T03:40:04.428Z,22.4
2022-10-05T03:41:04.306Z,22.4
2022-10-05T03:42:04.141Z,22.4
2022-10-05T03:43:04.097Z,22.4
2022-10-05T03:44:04.130Z,22.4
2022-10-05T03:45:05.009Z,22.4
2022-10-05T03:46:04.147Z,22.4
2022-10-05T03:47:04.071Z,22.4
2022-10-05T03:50:01.705Z,22.1
2022-10-05T03:50:07.244Z,22.1
2022-10-05T03:51:04.724Z,22.3
2022-10-05T03:52:04.578Z,22.3
2022-10-05T03:53:04.591Z,22.3
2022-10-05T03:54:04.705Z,22.3
2022-10-05T03:55:04.493Z,22.3
2022-10-05T03:56:05.400Z,22.3
2022-10-05T03:57:04.476Z,22.3
2022-10-05T03:58:04.797Z,22.3
2022-10-05T03:59:06.070Z,22.2
2022-10-05T04:00:04.732Z,22.2
2022-10-05T04:01:04.983Z,22.2
2022-10-05T04:02:04.482Z,22.2
2022-10-05T04:03:04.544Z,22.2
2022-10-05T04:04:04.519Z,22.2
2022-10-05T04:05:04.785Z,22.2
2022-10-05T04:06:04.495Z,22.2
2022-10-05T04:07:04.497Z,22.3
2022-10-05T04:08:04.485Z,22.3
2022-10-05T04:09:04.510Z,22.3
2022-10-05T04:10:31.192Z,22.1
2022-10-05T04:11:05.914Z,22.2
2022-10-05T04:12:04.704Z,22.3
2022-10-05T04:13:04.695Z,22.3
2022-10-05T04:14:04.968Z,22.3
2022-10-05T04:15:04.863Z,22.3
2022-10-05T04:16:04.821Z,22.3
2022-10-05T04:17:04.678Z,22.4
2022-10-05T04:18:04.722Z,22.4
2022-10-05T04:19:04.678Z,22.4
2022-10-05T04:20:04.738Z,22.4
2022-10-05T04:21:04.756Z,22.4
2022-10-05T04:22:04.774Z,22.4
2022-10-05T04:23:04.976Z,22.4
2022-10-05T04:24:04.689Z,22.4
2022-10-05T04:25:05.920Z,22.4
2022-10-05T04:26:04.979Z,22.5
2022-10-05T04:27:04.784Z,22.5
2022-10-05T04:28:04.741Z,22.5
2022-10-05T04:29:04.699Z,22.5
2022-10-05T04:30:05.635Z,22.5
2022-10-05T04:31:15.292Z,22.5
2022-10-05T04:32:04.671Z,22.5
2022-10-05T04:33:05.041Z,22.5
2022-10-05T04:34:06.440Z,22.5
2022-10-05T04:35:06.135Z,22.5
2022-10-05T04:36:05.008Z,22.5
2022-10-05T04:37:04.697Z,22.5
2022-10-05T04:38:04.801Z,22.6
2022-10-05T04:39:06.435Z,22.6
2022-10-05T04:40:04.911Z,22.6
2022-10-05T04:41:05.620Z,22.6
2022-10-05T04:42:04.679Z,22.6
2022-10-05T04:43:05.646Z,22.6
2022-10-05T04:44:04.732Z,22.6
2022-10-05T04:45:04.753Z,22.6
2022-10-05T04:46:05.020Z,22.6
2022-10-05T04:47:04.779Z,22.6
2022-10-05T04:48:04.729Z,22.6
2022-10-05T04:49:04.705Z,22.6
2022-10-05T04:50:04.641Z,22.6
2022-10-05T04:51:04.767Z,22.6
2022-10-05T04:52:04.707Z,22.6
2022-10-05T04:53:04.682Z,22.6
2022-10-05T04:54:05.646Z,22.6
2022-10-05T04:55:31.096Z,22.5
2022-10-05T04:56:04.217Z,22.6
2022-10-05T04:57:04.398Z,22.6
2022-10-05T04:58:03.875Z,22.6
2022-10-05T04:59:04.220Z,22.6
2022-10-05T05:00:04.118Z,22.7
2022-10-05T05:01:06.353Z,22.7
2022-10-05T05:02:03.916Z,22.6
2022-10-05T05:03:03.961Z,22.7
2022-10-05T05:04:06.309Z,22.7
2022-10-05T05:05:03.859Z,22.7
2022-10-05T05:06:16.915Z,22.7
2022-10-05T05:07:03.871Z,22.7
2022-10-05T05:08:04.103Z,22.7
2022-10-05T05:09:03.889Z,22.7
2022-10-05T05:10:03.959Z,22.7
2022-10-05T05:11:04.448Z,22.7
2022-10-05T05:12:04.784Z,22.7
2022-10-05T05:13:03.862Z,22.7
2022-10-05T05:14:05.037Z,22.7
2022-10-05T05:15:03.931Z,22.7
2022-10-05T05:16:03.956Z,22.7
2022-10-05T05:17:03.855Z,22.7
2022-10-05T05:18:03.939Z,22.7
2022-10-05T05:19:04.789Z,22.7
2022-10-05T05:20:04.673Z,22.7
2022-10-05T05:21:03.925Z,22.7
2022-10-05T05:22:04.850Z,22.7
2022-10-05T05:23:03.925Z,22.7
2022-10-05T05:24:05.637Z,22.7
2022-10-05T05:25:03.892Z,22.7
2022-10-05T05:26:06.074Z,22.7
2022-10-05T05:27:03.935Z,22.7
2022-10-05T05:28:04.003Z,22.7
2022-10-05T05:29:04.166Z,22.7
2022-10-05T05:30:03.851Z,22.7
2022-10-05T05:31:03.934Z,22.7
2022-10-05T05:32:03.984Z,22.8
2022-10-05T05:33:04.047Z,22.8
2022-10-05T05:34:04.820Z,22.8
2022-10-05T05:35:03.948Z,22.8
2022-10-05T05:36:03.896Z,22.8
2022-10-05T05:37:04.168Z,22.8
2022-10-05T05:38:03.886Z,22.8
2022-10-05T05:39:04.179Z,22.8
2022-10-05T05:40:04.221Z,22.8
2022-10-05T05:41:03.915Z,22.8
2022-10-05T05:42:03.981Z,22.8
2022-10-05T05:43:03.803Z,22.8
2022-10-05T05:44:03.891Z,22.8
2022-10-05T05:45:03.967Z,22.8
2022-10-05T05:46:03.922Z,22.8
2022-10-05T05:47:05.041Z,22.8
2022-10-05T05:48:04.825Z,22.8
2022-10-05T05:49:03.866Z,22.8
2022-10-05T05:50:07.252Z,22.8
2022-10-05T05:51:04.200Z,22.8
2022-10-05T05:52:03.955Z,22.8
2022-10-05T05:53:03.910Z,22.8
2022-10-05T05:54:03.877Z,22.8
2022-10-05T05:55:03.896Z,22.8
2022-10-05T05:56:04.163Z,22.8
2022-10-05T05:57:04.811Z,22.8
2022-10-05T05:58:04.136Z,22.8
2022-10-05T05:59:03.898Z,22.8
2022-10-05T06:00:04.306Z,22.8
2022-10-05T06:01:03.903Z,22.9
2022-10-05T06:02:04.214Z,22.9
2022-10-05T06:03:03.969Z,22.9
2022-10-05T06:04:05.868Z,22.9
2022-10-05T06:05:30.667Z,22.7
2022-10-05T06:06:04.414Z,22.8
2022-10-05T06:07:04.178Z,22.8
2022-10-05T06:08:04.135Z,22.9
2022-10-05T06:09:06.289Z,22.9
2022-10-05T06:10:04.387Z,22.9
2022-10-05T06:11:04.445Z,22.9
2022-10-05T06:12:04.264Z,22.9
2022-10-05T06:13:04.498Z,22.9
2022-10-05T06:14:04.291Z,22.9
2022-10-05T06:15:05.116Z,22.9
2022-10-05T06:16:04.516Z,22.9
2022-10-05T06:17:04.208Z,22.9
2022-10-05T06:18:04.639Z,22.9
2022-10-05T06:19:04.202Z,22.9
2022-10-05T06:20:06.614Z,22.9
2022-10-05T06:21:05.130Z,22.9
2022-10-05T06:22:04.126Z,22.9
2022-10-05T06:23:04.155Z,22.9
2022-10-05T06:24:04.241Z,22.9
2022-10-05T06:25:04.221Z,22.9
2022-10-05T06:26:08.258Z,22.9
2022-10-05T06:27:04.438Z,22.9
2022-10-05T06:28:04.417Z,22.9
2022-10-05T06:29:04.159Z,22.9
2022-10-05T06:30:04.554Z,22.9
2022-10-05T06:31:04.419Z,22.9
2022-10-05T06:32:04.471Z,22.9
2022-10-05T06:33:04.187Z,22.9
2022-10-05T06:34:04.286Z,22.9
2022-10-05T06:35:04.201Z,22.9
2022-10-05T06:36:04.228Z,22.9
2022-10-05T06:37:05.074Z,22.9
2022-10-05T06:38:04.398Z,22.9
2022-10-05T06:39:04.133Z,22.9
2022-10-05T06:40:04.449Z,22.9
2022-10-05T06:41:04.453Z,22.9
2022-10-05T06:42:04.266Z,22.9
2022-10-05T06:43:04.429Z,22.9
2022-10-05T06:44:04.217Z,22.9
2022-10-05T06:45:04.134Z,22.9
2022-10-05T06:46:04.193Z,22.9
2022-10-05T06:47:04.233Z,22.9
2022-10-05T06:48:05.580Z,22.9
2022-10-05T06:49:04.447Z,22.9
2022-10-05T06:50:04.209Z,22.9
2022-10-05T06:51:04.181Z,22.9
2022-10-05T06:52:04.540Z,22.9
2022-10-05T06:53:04.442Z,22.9
2022-10-05T06:54:05.407Z,23.0
2022-10-05T06:55:04.221Z,23.0
2022-10-05T06:56:04.102Z,23.0
2022-10-05T06:57:04.161Z,23.0
2022-10-05T06:58:06.198Z,23.0
2022-10-05T06:59:04.467Z,23.0
2022-10-05T07:00:04.219Z,23.0
2022-10-05T07:01:04.191Z,23.0
2022-10-05T07:02:07.111Z,23.0
2022-10-05T07:03:04.183Z,23.0
2022-10-05T07:04:04.129Z,23.0
2022-10-05T07:05:05.171Z,23.0
2022-10-05T07:06:04.221Z,23.0
2022-10-05T07:07:04.194Z,23.0
2022-10-05T07:08:04.150Z,23.0
2022-10-05T07:09:04.379Z,23.0
2022-10-05T07:10:06.623Z,23.0
2022-10-05T07:11:31.240Z,22.8
2022-10-05T07:12:05.740Z,22.9
2022-10-05T07:13:04.893Z,23.0
2022-10-05T07:14:04.328Z,23.0
2022-10-05T07:15:04.373Z,23.0
2022-10-05T07:16:05.333Z,23.0
2022-10-05T07:17:04.404Z,23.0
2022-10-05T07:18:04.887Z,23.0
2022-10-05T07:19:24.564Z,23.0
2022-10-05T07:20:04.624Z,23.0
2022-10-05T07:21:08.345Z,23.0
2022-10-05T07:22:04.792Z,23.0
2022-10-05T07:23:04.704Z,23.0
2022-10-05T07:24:04.343Z,23.0
2022-10-05T07:25:04.609Z,23.0
2022-10-05T07:26:06.358Z,23.0
2022-10-05T07:27:04.486Z,23.0
2022-10-05T07:28:04.649Z,23.0
2022-10-05T07:29:05.018Z,23.0
2022-10-05T07:30:04.313Z,23.0
2022-10-05T07:31:04.374Z,23.0
2022-10-05T07:32:04.367Z,23.0
2022-10-05T07:33:04.699Z,23.0
2022-10-05T07:34:05.340Z,23.0
2022-10-05T07:35:05.467Z,23.0
2022-10-05T07:36:04.609Z,23.0
2022-10-05T07:37:04.637Z,23.0
2022-10-05T07:38:04.295Z,23.0
2022-10-05T07:39:05.339Z,23.0
2022-10-05T07:40:04.303Z,23.0
2022-10-05T07:41:04.384Z,23.0
2022-10-05T07:42:04.657Z,23.0
2022-10-05T07:43:04.391Z,23.0
2022-10-05T07:44:08.867Z,23.0
2022-10-05T07:45:04.335Z,23.0
2022-10-05T07:46:06.247Z,23.0
2022-10-05T07:47:04.433Z,23.0
2022-10-05T07:48:04.659Z,23.0
2022-10-05T07:49:04.355Z,23.0
2022-10-05T07:50:04.291Z,23.0
2022-10-05T07:51:04.349Z,23.0
2022-10-05T07:52:04.372Z,23.0
2022-10-05T07:53:04.374Z,23.0
2022-10-05T07:54:05.264Z,23.0
2022-10-05T07:55:11.973Z,23.0
2022-10-05T07:56:04.094Z,23.0
2022-10-05T07:57:04.609Z,23.0
2022-10-05T07:58:04.457Z,23.0
2022-10-05T07:59:03.953Z,23.0
2022-10-05T08:00:04.685Z,23.0
2022-10-05T08:01:03.880Z,23.0
2022-10-05T08:02:03.937Z,23.0
2022-10-05T08:03:03.989Z,23.0
2022-10-05T08:04:03.834Z,23.0
2022-10-05T08:05:03.835Z,23.0
2022-10-05T08:06:04.095Z,23.0
2022-10-05T08:07:03.861Z,23.0
2022-10-05T08:08:03.866Z,23.0
2022-10-05T08:09:04.088Z,23.0
2022-10-05T08:10:04.459Z,23.0
2022-10-05T08:11:04.847Z,23.0
2022-10-05T08:12:06.906Z,23.0
2022-10-05T08:13:06.422Z,23.0
2022-10-05T08:14:04.173Z,23.0
2022-10-05T08:15:03.826Z,23.0
2022-10-05T08:16:03.983Z,23.0
2022-10-05T08:17:04.290Z,23.1
2022-10-05T08:18:03.879Z,23.1
2022-10-05T08:19:03.715Z,23.1
2022-10-05T08:20:03.737Z,23.1
2022-10-05T08:21:03.707Z,23.1
2022-10-05T08:22:03.717Z,23.1
2022-10-05T08:23:03.766Z,23.1
2022-10-05T08:24:03.699Z,23.1
2022-10-05T08:25:03.813Z,23.0
2022-10-05T08:26:03.792Z,23.1
2022-10-05T08:27:03.722Z,23.1
2022-10-05T08:28:03.761Z,23.1
2022-10-05T08:29:03.722Z,23.1
2022-10-05T08:30:03.713Z,23.1
2022-10-05T08:31:03.798Z,23.1
2022-10-05T08:32:03.726Z,23.1
2022-10-05T08:33:03.703Z,23.1
2022-10-05T08:34:03.697Z,23.1
2022-10-05T08:35:03.772Z,23.1
2022-10-05T08:36:03.733Z,23.1
2022-10-05T08:37:03.732Z,23.1
2022-10-05T08:38:03.736Z,23.1
2022-10-05T08:39:03.786Z,23.1
2022-10-05T08:40:03.763Z,23.1
2022-10-05T08:41:03.823Z,23.1
2022-10-05T08:42:03.909Z,23.1
2022-10-05T08:43:03.845Z,23.1
2022-10-05T08:44:31.034Z,22.9
2022-10-05T08:45:03.873Z,23.0
2022-10-05T08:46:04.024Z,23.0
2022-10-05T08:47:03.872Z,23.0
2022-10-05T08:48:03.894Z,23.0
2022-10-05T08:49:03.892Z,23.0
2022-10-05T08:50:03.896Z,23.0
2022-10-05T08:51:03.912Z,23.1
2022-10-05T08:52:03.959Z,23.0
2022-10-05T08:53:03.995Z,23.0
2022-10-05T08:54:03.925Z,23.0
2022-10-05T08:55:03.891Z,23.1
2022-10-05T08:56:03.983Z,23.1
2022-10-05T08:57:03.875Z,23.1
2022-10-05T08:58:03.882Z,23.1
2022-10-05T08:59:03.884Z,23.1
2022-10-05T09:00:03.942Z,23.0
2022-10-05T09:01:04.020Z,23.1
2022-10-05T09:02:03.992Z,23.1
2022-10-05T09:03:03.989Z,23.1
2022-10-05T09:04:03.936Z,23.1
2022-10-05T09:05:03.889Z,23.1
2022-10-05T09:06:04.034Z,23.1
2022-10-05T09:07:03.978Z,23.1
2022-10-05T09:08:04.378Z,23.1
2022-10-05T09:09:09.243Z,23.1
2022-10-05T09:10:05.063Z,23.1
2022-10-05T09:11:04.906Z,23.1
2022-10-05T09:12:04.241Z,23.1
2022-10-05T09:13:03.943Z,23.1
2022-10-05T09:14:03.912Z,23.1
2022-10-05T09:16:04.030Z,23.1
2022-10-05T09:17:03.881Z,23.1
2022-10-05T09:18:04.204Z,23.1
2022-10-05T09:19:03.895Z,23.1
2022-10-05T09:20:03.939Z,23.1
2022-10-05T09:21:03.886Z,23.1
2022-10-05T09:22:04.011Z,23.1
2022-10-05T09:23:04.053Z,23.1
2022-10-05T09:24:04.291Z,23.1
2022-10-05T09:25:03.956Z,23.1
2022-10-05T09:26:03.886Z,23.1
2022-10-05T09:27:03.886Z,23.1
2022-10-05T09:28:03.985Z,23.1
2022-10-05T09:29:04.009Z,23.1
2022-10-05T09:30:04.132Z,23.1
2022-10-05T09:33:12.936Z,22.8
2022-10-05T09:34:05.162Z,23.0
2022-10-05T09:35:04.696Z,23.0
2022-10-05T09:36:04.486Z,23.1
2022-10-05T09:37:04.531Z,23.1
2022-10-05T09:38:04.493Z,23.1
2022-10-05T09:39:04.740Z,23.1
2022-10-05T09:40:06.739Z,23.1
2022-10-05T09:41:05.255Z,23.1
2022-10-05T09:42:04.664Z,23.1
2022-10-05T09:43:04.678Z,23.1
2022-10-05T09:44:04.636Z,23.1
2022-10-05T09:45:04.643Z,23.1
2022-10-05T09:46:04.676Z,23.1
2022-10-05T09:47:04.752Z,23.1
2022-10-05T09:48:04.662Z,23.1
2022-10-05T09:49:04.607Z,23.1
2022-10-05T09:50:05.935Z,23.1
2022-10-05T09:51:04.619Z,23.1
2022-10-05T09:52:04.595Z,23.1
2022-10-05T09:53:04.648Z,23.1
2022-10-05T09:54:04.652Z,23.1
2022-10-05T09:55:04.649Z,23.1
2022-10-05T09:56:04.598Z,23.1
2022-10-05T09:57:04.599Z,23.1
2022-10-05T09:58:04.607Z,23.1
2022-10-05T09:59:04.662Z,23.1
2022-10-05T10:00:04.735Z,23.1
2022-10-05T10:01:09.647Z,23.1
2022-10-05T10:02:04.705Z,23.1
2022-10-05T10:03:04.702Z,23.1
2022-10-05T10:04:04.654Z,23.1
2022-10-05T10:05:04.673Z,23.1
2022-10-05T10:06:04.622Z,23.1
2022-10-05T10:07:04.631Z,23.1
2022-10-05T10:08:04.678Z,23.1
2022-10-05T10:09:04.619Z,23.1
2022-10-05T10:10:04.652Z,23.1
2022-10-05T10:11:04.733Z,23.1
2022-10-05T10:12:04.677Z,23.1
2022-10-05T10:13:04.652Z,23.1
2022-10-05T10:14:04.659Z,23.1
2022-10-05T10:15:04.666Z,23.2
2022-10-05T10:16:04.693Z,23.2
2022-10-05T10:17:04.723Z,23.2
2022-10-05T10:18:04.781Z,23.2
2022-10-05T10:19:04.630Z,23.2
2022-10-05T10:20:04.599Z,23.2
2022-10-05T10:21:04.635Z,23.2
2022-10-05T10:22:04.626Z,23.2
2022-10-05T10:23:04.696Z,23.3
2022-10-05T10:24:04.634Z,23.3
2022-10-05T10:25:04.622Z,23.3
2022-10-05T10:27:53.003Z,23.1
2022-10-05T10:28:05.174Z,23.2
2022-10-05T10:29:05.818Z,23.3
2022-10-05T10:30:04.764Z,23.4
2022-10-05T10:31:04.807Z,23.4
2022-10-05T10:32:04.745Z,23.4
2022-10-05T10:33:04.750Z,23.5
2022-10-05T10:34:04.772Z,23.5
2022-10-05T10:35:04.822Z,23.5
2022-10-05T10:36:07.003Z,23.5
2022-10-05T10:37:04.737Z,23.5
2022-10-05T10:38:04.723Z,23.6
2022-10-05T10:39:04.680Z,23.6
2022-10-05T10:40:04.663Z,23.6
2022-10-05T10:41:04.623Z,23.6
2022-10-05T10:42:04.609Z,23.6
2022-10-05T10:43:04.639Z,23.7
2022-10-05T10:44:04.613Z,23.7
2022-10-05T10:45:04.684Z,23.7
2022-10-05T10:46:04.708Z,23.7
2022-10-05T10:47:04.615Z,23.7
2022-10-05T10:48:11.356Z,23.6
2022-10-05T10:49:10.784Z,23.7
2022-10-05T10:50:11.221Z,23.6
2022-10-05T10:51:04.111Z,23.7
2022-10-05T10:52:03.955Z,23.7
2022-10-05T10:53:10.689Z,23.7
2022-10-05T10:54:04.369Z,23.7
2022-10-05T10:55:12.809Z,23.6
2022-10-05T10:56:11.922Z,23.7
2022-10-05T10:57:03.973Z,23.7
2022-10-05T10:58:04.018Z,23.7
2022-10-05T10:59:03.982Z,23.7
2022-10-05T11:00:03.959Z,23.7
2022-10-05T11:01:03.985Z,23.7
2022-10-05T11:02:04.010Z,23.7
2022-10-05T11:03:04.054Z,23.7
2022-10-05T11:04:04.028Z,23.7
2022-10-05T11:05:04.594Z,23.7
2022-10-05T11:06:03.974Z,23.7
2022-10-05T11:07:04.014Z,23.7
2022-10-05T11:08:04.025Z,23.7
2022-10-05T11:09:03.989Z,23.7
2022-10-05T11:10:04.000Z,23.7
2022-10-05T11:11:03.982Z,23.7
2022-10-05T11:12:04.020Z,23.7
2022-10-05T11:13:04.123Z,23.7
2022-10-05T11:14:04.004Z,23.7
2022-10-05T11:15:04.034Z,23.7
2022-10-05T11:16:04.172Z,23.7
2022-10-05T11:17:03.999Z,23.7
2022-10-05T11:18:03.983Z,23.7
2022-10-05T11:19:03.989Z,23.7
2022-10-05T11:20:05.101Z,23.7
2022-10-05T11:21:03.984Z,23.7
2022-10-05T11:22:04.011Z,23.7
2022-10-05T11:23:04.187Z,23.7
2022-10-05T11:24:04.020Z,23.7
2022-10-05T11:25:04.012Z,23.7
2022-10-05T11:26:03.978Z,23.7
2022-10-05T11:27:03.997Z,23.7
2022-10-05T11:28:04.148Z,23.7
2022-10-05T11:29:03.983Z,23.7
2022-10-05T11:30:04.001Z,23.7
2022-10-05T11:31:04.054Z,23.7
2022-10-05T11:32:03.971Z,23.7
2022-10-05T11:33:04.017Z,23.7
2022-10-05T11:34:03.989Z,23.7
2022-10-05T11:35:03.976Z,23.7
2022-10-05T11:36:03.986Z,23.7
2022-10-05T11:37:03.994Z,23.7
2022-10-05T11:38:03.977Z,23.7
2022-10-05T11:39:04.000Z,23.7
2022-10-05T11:40:04.088Z,23.7
2022-10-05T11:41:04.008Z,23.7
2022-10-05T11:42:03.975Z,23.7
2022-10-05T11:43:10.680Z,23.6
2022-10-05T11:44:06.347Z,23.7
2022-10-05T11:45:05.121Z,23.7
2022-10-05T11:46:04.449Z,23.7
2022-10-05T11:47:04.414Z,23.7
2022-10-05T11:48:04.420Z,23.7
2022-10-05T11:49:04.415Z,23.7
2022-10-05T11:50:04.559Z,23.7
2022-10-05T11:51:04.464Z,23.7
2022-10-05T11:52:04.419Z,23.7
2022-10-05T11:53:30.860Z,23.5
2022-10-05T11:54:04.801Z,23.7
2022-10-05T11:55:12.181Z,23.7
2022-10-05T11:56:04.616Z,23.7
2022-10-05T11:57:04.572Z,23.7
2022-10-05T11:58:04.634Z,23.7
2022-10-05T11:59:04.573Z,23.7
2022-10-05T12:00:04.618Z,23.7
2022-10-05T12:01:04.595Z,23.7
2022-10-05T12:02:04.761Z,23.7
2022-10-05T12:03:04.824Z,23.8
2022-10-05T12:04:04.738Z,23.8
2022-10-05T12:05:04.984Z,23.8
2022-10-05T12:06:04.687Z,23.8
2022-10-05T12:07:04.787Z,23.8
2022-10-05T12:08:04.713Z,23.8
2022-10-05T12:09:04.692Z,23.8
2022-10-05T12:10:04.879Z,23.8
2022-10-05T12:11:04.604Z,23.8
2022-10-05T12:12:04.678Z,23.8
2022-10-05T12:13:04.590Z,23.8
2022-10-05T12:14:04.625Z,23.8
2022-10-05T12:15:04.594Z,23.8
2022-10-05T12:16:04.673Z,23.8
2022-10-05T12:17:04.610Z,23.8
2022-10-05T12:18:04.612Z,23.8
2022-10-05T12:19:04.608Z,23.8
2022-10-05T12:20:04.673Z,23.8
2022-10-05T12:21:04.632Z,23.8
2022-10-05T12:22:04.600Z,23.8
2022-10-05T12:23:04.656Z,23.8
2022-10-05T12:24:04.612Z,23.8
2022-10-05T12:25:04.616Z,23.9
2022-10-05T12:26:04.743Z,23.9
2022-10-05T12:27:04.646Z,23.9
2022-10-05T12:28:04.608Z,23.9
2022-10-05T12:29:04.614Z,23.9
2022-10-05T12:30:04.644Z,23.9
2022-10-05T12:31:04.774Z,23.9
2022-10-05T12:32:04.769Z,23.9
2022-10-05T12:33:04.733Z,23.9
2022-10-05T12:34:04.687Z,23.9
2022-10-05T12:35:04.688Z,23.9
2022-10-05T12:36:04.652Z,23.9
2022-10-05T12:37:05.319Z,23.9
2022-10-05T12:38:04.607Z,23.9
2022-10-05T12:39:04.661Z,23.9
2022-10-05T12:40:32.992Z,23.9
2022-10-05T12:41:59.574Z,23.7
2022-10-05T12:42:04.505Z,23.7
2022-10-05T12:43:04.515Z,23.9
2022-10-05T12:44:04.494Z,23.9
2022-10-05T12:45:04.537Z,23.9
2022-10-05T12:46:04.605Z,23.9
2022-10-05T12:47:04.533Z,24.0
2022-10-05T12:48:04.505Z,24.0
2022-10-05T12:49:04.485Z,24.0
2022-10-05T12:50:04.484Z,24.0
2022-10-05T12:51:04.498Z,24.0
2022-10-05T12:52:04.509Z,24.0
2022-10-05T12:53:04.516Z,24.0
2022-10-05T12:54:04.648Z,24.0
2022-10-05T12:55:04.489Z,24.1
2022-10-05T12:56:04.602Z,24.1
2022-10-05T12:57:04.617Z,24.1
2022-10-05T12:58:04.516Z,24.1
2022-10-05T12:59:05.431Z,24.1
2022-10-05T13:00:04.510Z,24.1
2022-10-05T13:01:04.585Z,24.1
2022-10-05T13:02:04.708Z,24.1
2022-10-05T13:03:05.630Z,24.1
2022-10-05T13:04:04.607Z,24.1
2022-10-05T13:05:04.505Z,24.1
2022-10-05T13:06:04.671Z,24.2
2022-10-05T13:07:04.503Z,24.2
2022-10-05T13:08:04.499Z,24.2
2022-10-05T13:09:04.497Z,24.2
2022-10-05T13:10:04.538Z,24.2
2022-10-05T13:11:04.482Z,24.2
2022-10-05T13:12:04.543Z,24.2
2022-10-05T13:13:04.488Z,24.2
2022-10-05T13:14:04.499Z,24.2
2022-10-05T13:15:04.742Z,24.2
2022-10-05T13:16:04.580Z,24.2
2022-10-05T13:17:04.510Z,24.3
2022-10-05T13:18:04.688Z,24.3
2022-10-05T13:19:04.574Z,24.3
2022-10-05T13:20:04.491Z,24.2
2022-10-05T13:21:04.516Z,24.2
2022-10-05T13:22:04.830Z,24.2
2022-10-05T13:23:04.724Z,24.2
2022-10-05T13:24:04.627Z,24.2
2022-10-05T13:25:04.606Z,24.2